Time;durP1;ratioP1;P1;durP2;ratioP2;P2;SDS_P1;SDS_P2;PMS_P1;PMS_P2;Temp;Humidity;BMP_temperature;BMP_pressure;BME280_temperature;BME280_humidity;BME280_pressure;Samples;Min_cycle;Max_cycle;Signal;HPM_P1;HPM_P2
2023/12/17 00:01:11;;;;;;;5.38;1.80;;;11.20;99.90;;;;;;5032210;28;20032;-43
2023/12/17 00:03:36;;;;;;;4.70;2.30;;;11.10;99.90;;;;;;5033731;28;20018;-45
2023/12/17 00:06:02;;;;;;;7.43;2.45;;;11.20;99.90;;;;;;5034773;28;20025;-43
2023/12/17 00:08:28;;;;;;;3.30;2.38;;;11.20;99.90;;;;;;5034558;28;20071;-41
2023/12/17 00:10:53;;;;;;;4.90;2.03;;;11.10;99.90;;;;;;5033899;28;20021;-51
2023/12/17 00:13:19;;;;;;;2.85;2.22;;;11.10;99.90;;;;;;5033971;28;20368;-42
2023/12/17 00:15:45;;;;;;;3.42;2.20;;;11.20;99.90;;;;;;5034259;28;20017;-43
2023/12/17 00:18:12;;;;;;;5.85;3.13;;;11.20;99.90;;;;;;5033503;28;20029;-43
2023/12/17 00:20:38;;;;;;;4.55;2.03;;;11.10;99.90;;;;;;5031852;28;20017;-43
2023/12/17 00:23:04;;;;;;;9.73;2.05;;;11.10;99.90;;;;;;5022529;28;20056;-42
2023/12/17 00:25:30;;;;;;;4.95;2.03;;;11.10;99.90;;;;;;5033699;28;20539;-46
2023/12/17 00:27:56;;;;;;;3.50;1.77;;;11.10;99.90;;;;;;5033705;28;20018;-42
2023/12/17 00:30:22;;;;;;;9.30;3.17;;;11.10;99.90;;;;;;5033241;28;20554;-45
2023/12/17 00:32:48;;;;;;;6.03;2.25;;;11.00;99.90;;;;;;5032982;28;20491;-45
2023/12/17 00:35:13;;;;;;;5.93;2.75;;;11.10;99.90;;;;;;5033610;28;20048;-44
2023/12/17 00:37:39;;;;;;;7.72;2.65;;;11.10;99.90;;;;;;5032225;28;20048;-47
2023/12/17 00:40:06;;;;;;;6.07;2.30;;;11.10;99.90;;;;;;5033093;28;20017;-44
2023/12/17 00:42:32;;;;;;;7.15;1.90;;;11.10;99.90;;;;;;5032627;28;20029;-42
2023/12/17 00:44:58;;;;;;;9.30;2.83;;;11.10;99.90;;;;;;5032882;28;20032;-44
2023/12/17 00:47:42;;;;;;;2.90;2.20;;;11.10;99.90;;;;;;5033156;28;20488;-41
2023/12/17 00:50:08;;;;;;;4.60;2.33;;;11.10;99.90;;;;;;5033783;28;20443;-42
2023/12/17 00:52:34;;;;;;;4.35;2.47;;;11.10;99.90;;;;;;5033453;28;20068;-57
2023/12/17 00:55:00;;;;;;;8.93;2.40;;;11.10;99.90;;;;;;5033586;28;20383;-42
2023/12/17 00:57:25;;;;;;;7.00;2.60;;;11.10;99.90;;;;;;5033124;28;20018;-43
2023/12/17 00:59:51;;;;;;;7.03;2.30;;;11.00;99.90;;;;;;5033465;28;20112;-46
2023/12/17 01:02:17;;;;;;;10.63;2.80;;;11.00;99.90;;;;;;5031465;28;20395;-42
2023/12/17 01:04:43;;;;;;;14.70;3.08;;;11.10;99.90;;;;;;5033286;28;20029;-48
2023/12/17 01:07:09;;;;;;;3.60;1.95;;;11.10;99.90;;;;;;5032811;28;20092;-52
2023/12/17 01:09:34;;;;;;;3.83;2.22;;;11.10;99.90;;;;;;5033117;28;20389;-42
2023/12/17 01:12:02;;;;;;;7.05;2.60;;;11.10;99.90;;;;;;5032933;28;20036;-46
2023/12/17 01:14:32;;;;;;;5.22;2.42;;;11.10;99.90;;;;;;5033161;28;20505;-44
2023/12/17 01:17:01;;;;;;;8.52;2.95;;;11.10;99.90;;;;;;5032568;28;20083;-47
2023/12/17 01:19:27;;;;;;;6.53;2.42;;;11.00;99.90;;;;;;5031742;28;20384;-45
2023/12/17 01:21:52;;;;;;;2.85;2.03;;;11.00;99.90;;;;;;5032483;28;20033;-41
2023/12/17 01:24:18;;;;;;;11.10;3.13;;;10.90;99.90;;;;;;5032386;28;20033;-45
2023/12/17 01:26:44;;;;;;;12.65;2.60;;;10.90;99.90;;;;;;5032968;28;20029;-46
2023/12/17 01:29:10;;;;;;;3.30;2.50;;;10.90;99.90;;;;;;5032999;28;20474;-43
2023/12/17 01:31:35;;;;;;;3.45;2.25;;;10.90;99.90;;;;;;5032608;28;20090;-47
2023/12/17 01:34:02;;;;;;;10.25;3.15;;;10.80;99.90;;;;;;5032995;28;20033;-44
2023/12/17 01:36:28;;;;;;;6.03;2.20;;;10.80;99.90;;;;;;5033052;28;20429;-46
2023/12/17 01:38:53;;;;;;;9.48;2.92;;;10.90;99.90;;;;;;5032937;28;20022;-43
2023/12/17 01:41:19;;;;;;;8.57;2.45;;;10.90;99.90;;;;;;5031698;28;20021;-42
2023/12/17 01:43:45;;;;;;;7.95;2.20;;;10.90;99.90;;;;;;5031221;28;20506;-45
2023/12/17 01:46:10;;;;;;;3.70;2.15;;;10.90;99.90;;;;;;5032559;28;20495;-59
2023/12/17 01:48:36;;;;;;;4.47;2.45;;;10.90;99.90;;;;;;5032780;28;20025;-56
2023/12/17 01:51:02;;;;;;;8.73;2.17;;;11.00;99.90;;;;;;5032425;28;20029;-56
2023/12/17 01:53:28;;;;;;;6.60;2.33;;;11.00;99.90;;;;;;5032718;28;20018;-57
2023/12/17 01:55:54;;;;;;;3.53;1.90;;;11.00;99.90;;;;;;5032190;28;20029;-56
2023/12/17 01:58:20;;;;;;;15.13;2.92;;;11.00;99.90;;;;;;5031226;28;20379;-55
2023/12/17 02:00:48;;;;;;;8.52;2.22;;;11.00;99.90;;;;;;5032271;28;20032;-56
2023/12/17 02:03:14;;;;;;;7.32;2.65;;;11.00;99.90;;;;;;5032347;28;20025;-54
2023/12/17 02:05:40;;;;;;;3.95;2.20;;;11.00;99.90;;;;;;5031308;28;20445;-54
2023/12/17 02:08:06;;;;;;;4.53;2.22;;;11.00;99.90;;;;;;5032902;28;20026;-56
2023/12/17 02:10:31;;;;;;;4.43;2.13;;;10.90;99.90;;;;;;5028688;28;20361;-53
2023/12/17 02:13:01;;;;;;;3.38;2.63;;;10.90;99.90;;;;;;5030922;28;20387;-55
2023/12/17 02:15:26;;;;;;;2.17;1.98;;;10.90;99.90;;;;;;5032248;28;20044;-55
2023/12/17 02:17:53;;;;;;;2.70;2.20;;;10.90;99.90;;;;;;5031533;28;20550;-56
2023/12/17 02:20:19;;;;;;;2.15;1.98;;;10.90;99.90;;;;;;5032440;28;20029;-58
2023/12/17 02:22:50;;;;;;;4.70;2.95;;;10.90;99.90;;;;;;5013593;28;20048;-50
2023/12/17 02:25:16;;;;;;;4.20;2.70;;;10.90;99.90;;;;;;5032054;28;20505;-42
2023/12/17 02:27:43;;;;;;;4.18;2.25;;;10.90;99.90;;;;;;5032500;28;20021;-41
2023/12/17 02:30:09;;;;;;;3.72;2.70;;;11.00;99.90;;;;;;5032105;28;20050;-44
2023/12/17 02:32:35;;;;;;;3.10;2.33;;;10.90;99.90;;;;;;5032084;28;20479;-41
2023/12/17 02:35:01;;;;;;;4.53;2.30;;;10.90;99.90;;;;;;5030517;28;20112;-46
2023/12/17 02:37:26;;;;;;;3.20;2.10;;;10.90;99.90;;;;;;5032295;28;20152;-40
2023/12/17 02:39:52;;;;;;;8.50;3.20;;;11.00;99.90;;;;;;5032198;28;20041;-43
2023/12/17 02:42:18;;;;;;;5.03;2.88;;;11.10;99.90;;;;;;5032166;28;20380;-41
2023/12/17 02:44:44;;;;;;;3.95;2.10;;;11.10;99.90;;;;;;5031105;28;20025;-41
2023/12/17 02:47:09;;;;;;;3.45;2.10;;;11.10;99.90;;;;;;5032260;28;20029;-45
2023/12/17 02:49:35;;;;;;;4.00;2.83;;;11.10;99.90;;;;;;5031352;28;20490;-46
2023/12/17 02:52:01;;;;;;;3.97;2.25;;;11.00;99.90;;;;;;5032006;28;20403;-41
2023/12/17 02:54:27;;;;;;;4.03;2.42;;;11.00;99.90;;;;;;5031899;28;20026;-42
2023/12/17 02:56:53;;;;;;;3.80;1.92;;;11.10;99.90;;;;;;5032073;28;20112;-43
2023/12/17 02:59:19;;;;;;;2.67;1.95;;;11.10;99.90;;;;;;5029870;28;20502;-45
2023/12/17 03:01:45;;;;;;;6.28;1.50;;;11.10;99.90;;;;;;5031439;28;20045;-43
2023/12/17 03:04:11;;;;;;;1.30;1.20;;;11.10;99.90;;;;;;5030669;28;20109;-42
2023/12/17 03:06:38;;;;;;;3.78;1.70;;;11.10;99.90;;;;;;5030852;28;20451;-44
2023/12/17 03:09:04;;;;;;;7.13;2.20;;;11.10;99.90;;;;;;5033455;28;20387;-42
2023/12/17 03:11:30;;;;;;;8.85;2.28;;;11.10;99.90;;;;;;5035394;28;20049;-43
2023/12/17 03:13:56;;;;;;;5.75;1.70;;;11.10;99.90;;;;;;5035376;28;20110;-42
2023/12/17 03:16:24;;;;;;;4.57;1.70;;;11.10;99.90;;;;;;5034857;28;20041;-45
2023/12/17 03:18:50;;;;;;;3.53;2.13;;;11.10;99.90;;;;;;5035280;28;20109;-45
2023/12/17 03:21:16;;;;;;;7.68;2.53;;;11.00;99.90;;;;;;5034829;28;20104;-42
2023/12/17 03:23:42;;;;;;;7.15;1.98;;;11.00;99.90;;;;;;5033032;28;20025;-48
2023/12/17 03:26:07;;;;;;;7.22;2.30;;;11.00;99.90;;;;;;5033075;28;20018;-41
2023/12/17 03:28:33;;;;;;;10.27;3.45;;;11.00;99.90;;;;;;5033568;28;20132;-41
2023/12/17 03:30:59;;;;;;;8.88;3.17;;;11.00;99.90;;;;;;5035058;28;20049;-46
2023/12/17 03:33:25;;;;;;;12.00;3.20;;;11.00;99.90;;;;;;5034975;28;20051;-42
2023/12/17 03:35:50;;;;;;;5.38;2.58;;;11.00;99.90;;;;;;5035229;28;20487;-43
2023/12/17 03:38:16;;;;;;;3.97;3.35;;;11.00;99.90;;;;;;5034366;28;20033;-45
2023/12/17 03:40:42;;;;;;;8.07;2.83;;;11.10;99.90;;;;;;5033651;28;20049;-46
2023/12/17 03:43:08;;;;;;;9.38;2.72;;;11.00;99.90;;;;;;5034195;28;20025;-44
2023/12/17 03:45:35;;;;;;;5.57;2.58;;;11.00;99.90;;;;;;5033691;28;20037;-41
2023/12/17 03:48:02;;;;;;;6.30;2.63;;;11.00;99.90;;;;;;5034933;28;20026;-43
2023/12/17 03:50:27;;;;;;;10.52;2.88;;;11.00;99.90;;;;;;5034806;28;20030;-41
2023/12/17 03:52:53;;;;;;;10.38;3.10;;;11.00;99.90;;;;;;5033351;28;20368;-42
2023/12/17 03:55:19;;;;;;;8.10;3.38;;;10.90;99.90;;;;;;5033087;28;20036;-39
2023/12/17 03:57:47;;;;;;;8.95;3.72;;;11.00;99.90;;;;;;5034831;28;20509;-43
2023/12/17 04:00:14;;;;;;;12.48;3.28;;;11.00;99.90;;;;;;5025830;28;20034;-43
2023/12/17 04:02:40;;;;;;;6.80;2.80;;;11.00;99.90;;;;;;5021420;28;20013;-41
2023/12/17 04:05:07;;;;;;;10.23;3.13;;;11.00;99.90;;;;;;5033169;28;20036;-44
2023/12/17 04:07:32;;;;;;;9.07;3.03;;;11.00;99.90;;;;;;5034110;28;20495;-44
2023/12/17 04:10:03;;;;;;;15.07;3.20;;;10.90;99.90;;;;;;5033212;28;20026;-44
2023/12/17 04:12:29;;;;;;;5.30;3.33;;;10.90;99.90;;;;;;5033158;28;20057;-44
2023/12/17 04:14:55;;;;;;;24.45;3.97;;;10.90;99.90;;;;;;5034098;28;20057;-44
2023/12/17 04:17:21;;;;;;;4.75;3.42;;;10.80;99.90;;;;;;5034159;28;20028;-56
2023/12/17 04:19:47;;;;;;;6.43;3.33;;;10.80;99.90;;;;;;5032782;28;20438;-56
2023/12/17 04:22:12;;;;;;;12.00;4.03;;;10.80;99.90;;;;;;5033274;28;20144;-57
2023/12/17 04:24:38;;;;;;;9.10;3.53;;;10.80;99.90;;;;;;5032656;28;20021;-55
2023/12/17 04:27:04;;;;;;;8.68;3.47;;;10.80;99.90;;;;;;5031828;28;20057;-56
2023/12/17 04:29:30;;;;;;;11.38;3.72;;;10.80;99.90;;;;;;5032358;28;20049;-56
2023/12/17 04:31:56;;;;;;;13.40;4.18;;;10.80;99.90;;;;;;5034331;28;20031;-53
2023/12/17 04:34:22;;;;;;;10.15;3.80;;;10.80;99.90;;;;;;5033669;28;20108;-47
2023/12/17 04:36:47;;;;;;;10.90;4.10;;;10.80;99.90;;;;;;5033456;28;20407;-43
2023/12/17 04:39:13;;;;;;;14.38;3.95;;;10.80;99.90;;;;;;5033505;28;20022;-43
2023/12/17 04:41:39;;;;;;;13.13;4.65;;;10.80;99.90;;;;;;5033830;28;20112;-44
2023/12/17 04:44:05;;;;;;;10.48;3.38;;;10.80;99.90;;;;;;5033232;28;20051;-43
2023/12/17 04:46:34;;;;;;;8.75;3.97;;;10.70;99.90;;;;;;5034023;28;20511;-44
2023/12/17 04:49:00;;;;;;;14.55;3.75;;;10.70;99.90;;;;;;5033493;28;20483;-53
2023/12/17 04:51:25;;;;;;;11.35;4.13;;;10.70;99.90;;;;;;5031836;28;20113;-57
2023/12/17 04:53:52;;;;;;;10.43;4.63;;;10.70;99.90;;;;;;5033597;28;20037;-59
2023/12/17 04:56:18;;;;;;;11.70;4.93;;;10.80;99.90;;;;;;5026499;28;20395;-55
2023/12/17 04:58:45;;;;;;;9.38;4.78;;;10.80;99.90;;;;;;5014516;28;20029;-56
2023/12/17 05:01:11;;;;;;;9.90;4.75;;;10.70;99.90;;;;;;5033310;28;20029;-55
2023/12/17 05:03:38;;;;;;;11.13;4.25;;;10.70;99.90;;;;;;5033343;28;20164;-56
2023/12/17 05:06:04;;;;;;;4.78;2.80;;;10.70;99.90;;;;;;5032635;28;20443;-55
2023/12/17 05:08:30;;;;;;;13.00;4.15;;;10.70;99.90;;;;;;5033347;28;20022;-56
2023/12/17 05:10:56;;;;;;;6.80;3.80;;;10.60;99.90;;;;;;5033140;28;20024;-58
2023/12/17 05:13:22;;;;;;;7.40;4.35;;;10.70;99.90;;;;;;5032923;28;20039;-56
2023/12/17 05:15:48;;;;;;;12.77;4.38;;;10.70;99.90;;;;;;5032292;28;20104;-56
2023/12/17 05:18:13;;;;;;;10.88;3.60;;;10.70;99.90;;;;;;5033262;28;20408;-56
2023/12/17 05:20:40;;;;;;;13.05;3.85;;;10.70;99.90;;;;;;5032473;28;20025;-49
2023/12/17 05:23:07;;;;;;;8.40;3.65;;;10.70;99.90;;;;;;5032747;28;20021;-45
2023/12/17 05:25:32;;;;;;;8.23;2.88;;;10.60;99.90;;;;;;5032439;28;20124;-43
2023/12/17 05:27:58;;;;;;;9.02;2.80;;;10.50;99.90;;;;;;5033117;28;20057;-44
2023/12/17 05:30:24;;;;;;;9.38;3.08;;;10.60;99.90;;;;;;5031948;28;20052;-42
2023/12/17 05:32:50;;;;;;;7.63;2.90;;;10.50;99.90;;;;;;5032462;28;20028;-40
2023/12/17 05:35:15;;;;;;;7.50;2.78;;;10.50;99.90;;;;;;5032693;28;20541;-41
2023/12/17 05:37:41;;;;;;;10.48;3.13;;;10.60;99.90;;;;;;5033154;28;20104;-43
2023/12/17 05:40:08;;;;;;;16.30;3.63;;;10.50;99.90;;;;;;5031367;28;20018;-40
2023/12/17 05:42:37;;;;;;;15.90;3.95;;;10.50;99.90;;;;;;5032476;28;20029;-41
2023/12/17 05:45:03;;;;;;;13.40;4.25;;;10.50;99.90;;;;;;5032414;28;20033;-42
2023/12/17 05:47:30;;;;;;;7.93;3.90;;;10.50;99.90;;;;;;5032839;28;20032;-42
2023/12/17 05:49:56;;;;;;;9.00;3.78;;;10.50;99.90;;;;;;5032187;28;20060;-43
2023/12/17 05:52:22;;;;;;;9.45;4.07;;;10.50;99.90;;;;;;5032199;28;20112;-42
2023/12/17 05:54:47;;;;;;;10.43;4.70;;;10.40;99.90;;;;;;5032388;28;20518;-56
2023/12/17 05:57:13;;;;;;;18.83;4.85;;;10.50;99.90;;;;;;5031513;28;20116;-54
2023/12/17 05:59:39;;;;;;;7.47;3.70;;;10.50;99.90;;;;;;5031989;28;20487;-55
2023/12/17 06:02:06;;;;;;;10.07;3.53;;;10.40;99.90;;;;;;5032552;28;20026;-56
2023/12/17 06:04:32;;;;;;;12.07;5.28;;;10.50;99.90;;;;;;5032502;28;20060;-54
2023/12/17 06:06:58;;;;;;;10.20;4.45;;;10.50;99.90;;;;;;5030927;28;20697;-56
2023/12/17 06:09:24;;;;;;;17.67;4.85;;;10.40;99.90;;;;;;5032448;28;20475;-56
2023/12/17 06:11:50;;;;;;;12.52;4.70;;;10.50;99.90;;;;;;5032448;28;20022;-55
2023/12/17 06:14:17;;;;;;;13.52;4.95;;;10.40;99.90;;;;;;5032747;28;20029;-54
2023/12/17 06:16:43;;;;;;;12.05;4.75;;;10.40;99.90;;;;;;5031561;28;20047;-56
2023/12/17 06:19:10;;;;;;;16.33;5.47;;;10.40;99.90;;;;;;5011518;28;20072;-57
2023/12/17 06:21:36;;;;;;;14.43;6.07;;;10.40;99.90;;;;;;5025268;28;20105;-57
2023/12/17 06:24:03;;;;;;;10.27;4.82;;;10.40;99.90;;;;;;5047622;28;20594;-55
2023/12/17 06:26:29;;;;;;;11.27;5.28;;;10.40;99.90;;;;;;5031920;28;20463;-55
2023/12/17 06:28:55;;;;;;;16.20;5.95;;;10.40;99.90;;;;;;5031211;28;20025;-56
2023/12/17 06:31:22;;;;;;;22.35;5.90;;;10.40;99.90;;;;;;5031385;28;20052;-58
2023/12/17 06:33:48;;;;;;;22.77;7.65;;;10.40;99.90;;;;;;5031871;28;20560;-54
2023/12/17 06:36:14;;;;;;;17.33;5.82;;;10.30;99.90;;;;;;5032341;28;20026;-53
2023/12/17 06:38:40;;;;;;;20.25;7.25;;;10.40;99.90;;;;;;5032299;28;20479;-54
2023/12/17 06:41:08;;;;;;;21.33;7.85;;;10.40;99.90;;;;;;5023884;28;20109;-56
2023/12/17 06:43:33;;;;;;;18.27;6.25;;;10.40;99.90;;;;;;5029286;28;20148;-56
2023/12/17 06:46:02;;;;;;;16.23;7.70;;;10.40;99.90;;;;;;5035725;28;20048;-56
2023/12/17 06:48:27;;;;;;;16.02;8.10;;;10.40;99.90;;;;;;5034754;28;20021;-56
2023/12/17 06:50:53;;;;;;;25.58;8.15;;;10.40;99.90;;;;;;5035593;28;20542;-56
2023/12/17 06:53:19;;;;;;;26.83;8.30;;;10.30;99.90;;;;;;5035651;28;20083;-56
2023/12/17 06:55:44;;;;;;;20.58;8.68;;;10.40;99.90;;;;;;5035336;28;20117;-56
2023/12/17 06:58:11;;;;;;;27.73;9.57;;;10.40;99.90;;;;;;5035232;28;20022;-56
2023/12/17 07:00:37;;;;;;;33.80;10.80;;;10.40;99.90;;;;;;5034880;28;20091;-55
2023/12/17 07:03:03;;;;;;;24.25;9.68;;;10.40;99.90;;;;;;5035441;28;20034;-57
2023/12/17 07:05:28;;;;;;;25.83;11.10;;;10.40;99.90;;;;;;5034134;28;20479;-42
2023/12/17 07:07:54;;;;;;;33.03;10.32;;;10.40;99.90;;;;;;5035487;28;20025;-42
2023/12/17 07:10:20;;;;;;;21.65;9.88;;;10.40;99.90;;;;;;5034852;28;20024;-48
2023/12/17 07:12:46;;;;;;;23.30;10.20;;;10.40;99.90;;;;;;5035415;28;20065;-41
2023/12/17 07:15:12;;;;;;;27.75;9.73;;;10.40;99.90;;;;;;5035231;28;20604;-41
2023/12/17 07:17:38;;;;;;;22.52;9.38;;;10.40;99.90;;;;;;5033346;28;20044;-42
2023/12/17 07:20:04;;;;;;;18.17;9.20;;;10.40;99.90;;;;;;5035143;28;20029;-42
2023/12/17 07:22:30;;;;;;;18.50;8.52;;;10.30;99.90;;;;;;5033814;28;20033;-40
2023/12/17 07:24:56;;;;;;;22.98;8.15;;;10.40;99.90;;;;;;5035369;28;20387;-40
2023/12/17 07:27:21;;;;;;;22.30;8.60;;;10.40;99.90;;;;;;5023267;28;20037;-41
2023/12/17 07:29:47;;;;;;;17.48;7.40;;;10.40;99.90;;;;;;5031336;28;20051;-54
2023/12/17 07:32:13;;;;;;;22.05;7.45;;;10.30;99.90;;;;;;5034028;28;20104;-53
2023/12/17 07:34:39;;;;;;;19.25;7.28;;;10.40;99.90;;;;;;5035492;28;20152;-55
2023/12/17 07:37:04;;;;;;;19.75;6.88;;;10.20;99.90;;;;;;5034166;28;20304;-56
2023/12/17 07:39:30;;;;;;;16.00;7.10;;;10.20;99.90;;;;;;5035084;28;20032;-56
2023/12/17 07:41:56;;;;;;;14.65;7.07;;;10.20;99.90;;;;;;5034367;28;20026;-55
2023/12/17 07:44:22;;;;;;;17.88;6.68;;;10.20;99.90;;;;;;5033756;28;20566;-56
2023/12/17 07:46:47;;;;;;;13.32;6.05;;;10.20;99.90;;;;;;5033345;28;20104;-57
2023/12/17 07:49:13;;;;;;;14.13;6.80;;;10.20;99.90;;;;;;5034916;28;20024;-55
2023/12/17 07:51:39;;;;;;;18.50;5.85;;;10.20;99.90;;;;;;5034135;28;20021;-56
2023/12/17 07:54:07;;;;;;;14.93;6.47;;;10.20;99.90;;;;;;5034703;28;20100;-58
2023/12/17 07:56:33;;;;;;;17.20;7.25;;;10.10;99.90;;;;;;5034762;28;20029;-56
2023/12/17 07:58:59;;;;;;;16.02;6.68;;;10.20;99.90;;;;;;5021161;28;20113;-55
2023/12/17 08:01:28;;;;;;;11.90;5.80;;;10.20;99.90;;;;;;5028539;28;20025;-53
2023/12/17 08:03:54;;;;;;;17.63;6.43;;;10.20;99.90;;;;;;5034449;28;20498;-55
2023/12/17 08:06:20;;;;;;;10.88;6.05;;;10.20;99.90;;;;;;5033967;28;20128;-56
2023/12/17 08:08:45;;;;;;;14.32;6.53;;;10.20;99.90;;;;;;5034233;28;20018;-55
2023/12/17 08:11:14;;;;;;;19.98;6.22;;;10.10;99.90;;;;;;5034391;28;20242;-57
2023/12/17 08:13:40;;;;;;;12.18;5.85;;;10.10;99.90;;;;;;5034427;28;20014;-56
2023/12/17 08:16:06;;;;;;;16.52;5.97;;;10.10;99.90;;;;;;5031566;28;20044;-56
2023/12/17 08:18:32;;;;;;;10.05;5.45;;;10.10;99.90;;;;;;5034045;28;20368;-55
2023/12/17 08:20:57;;;;;;;14.95;5.97;;;10.10;99.90;;;;;;5034076;28;20024;-56
2023/12/17 08:23:25;;;;;;;9.48;5.25;;;10.00;99.90;;;;;;5034224;28;20379;-58
2023/12/17 08:25:51;;;;;;;7.63;3.97;;;10.00;99.90;;;;;;5033699;28;20021;-55
2023/12/17 08:28:19;;;;;;;11.40;5.50;;;10.00;99.90;;;;;;5032801;28;20472;-56
2023/12/17 08:30:44;;;;;;;17.33;7.25;;;10.00;99.90;;;;;;5033992;28;20495;-56
2023/12/17 08:33:10;;;;;;;16.70;5.78;;;10.00;99.90;;;;;;5033414;28;20087;-55
2023/12/17 08:35:37;;;;;;;11.07;6.10;;;10.00;99.90;;;;;;5032772;28;20033;-55
2023/12/17 08:38:05;;;;;;;14.85;6.32;;;9.90;99.90;;;;;;5033788;28;20082;-56
2023/12/17 08:40:37;;;;;;;;;;;10.00;99.90;;;;;;5049719;28;20449;-57
2023/12/17 08:43:03;;;;;;;20.50;6.43;;;9.90;99.90;;;;;;5033617;28;20383;-53
2023/12/17 08:45:29;;;;;;;15.50;6.57;;;9.90;99.90;;;;;;5033495;28;20553;-57
2023/12/17 08:47:56;;;;;;;14.80;6.22;;;9.90;99.90;;;;;;5033676;28;20022;-57
2023/12/17 08:50:22;;;;;;;13.35;6.75;;;9.90;99.90;;;;;;5033618;28;20057;-56
2023/12/17 08:52:48;;;;;;;14.70;7.80;;;9.90;99.90;;;;;;5033367;28;20033;-55
2023/12/17 08:55:14;;;;;;;18.77;8.13;;;9.90;99.90;;;;;;5033722;28;20478;-56
2023/12/17 08:57:39;;;;;;;17.50;7.43;;;9.90;99.90;;;;;;5033671;28;20407;-56
2023/12/17 09:00:06;;;;;;;15.65;7.57;;;9.90;99.90;;;;;;5033553;28;20033;-57
2023/12/17 09:02:35;;;;;;;22.98;9.38;;;9.80;99.90;;;;;;5032868;28;20052;-56
2023/12/17 09:05:01;;;;;;;23.70;10.38;;;9.90;99.90;;;;;;5015574;28;20021;-57
2023/12/17 09:07:27;;;;;;;30.20;10.95;;;9.90;99.90;;;;;;5032863;28;20018;-55
2023/12/17 09:09:52;;;;;;;33.20;11.63;;;9.80;99.90;;;;;;5032945;28;20029;-57
2023/12/17 09:12:18;;;;;;;20.42;10.10;;;9.80;99.90;;;;;;5032971;28;20021;-57
2023/12/17 09:14:47;;;;;;;29.48;11.43;;;9.80;99.90;;;;;;5032605;28;20100;-59
2023/12/17 09:17:13;;;;;;;26.75;11.77;;;9.80;99.90;;;;;;5032873;28;20031;-57
2023/12/17 09:19:39;;;;;;;21.45;10.40;;;9.80;99.90;;;;;;5032456;28;20026;-55
2023/12/17 09:22:05;;;;;;;26.40;12.88;;;9.90;99.90;;;;;;5032981;28;20033;-55
2023/12/17 09:24:31;;;;;;;27.92;11.20;;;9.80;99.90;;;;;;5031814;28;20503;-56
2023/12/17 09:26:57;;;;;;;29.23;12.65;;;9.80;99.90;;;;;;5032205;28;20056;-58
2023/12/17 09:29:23;;;;;;;40.90;13.10;;;9.80;99.90;;;;;;5032382;28;20030;-56
2023/12/17 09:31:48;;;;;;;29.02;12.90;;;9.80;99.90;;;;;;5031672;28;20041;-52
2023/12/17 09:34:14;;;;;;;37.00;14.70;;;9.80;99.90;;;;;;5032871;28;20038;-56
2023/12/17 09:36:41;;;;;;;33.60;13.27;;;9.90;99.90;;;;;;5029338;28;20544;-57
2023/12/17 09:39:07;;;;;;;32.50;13.50;;;9.80;99.90;;;;;;5021484;28;20037;-53
2023/12/17 09:41:33;;;;;;;41.50;13.63;;;9.90;99.90;;;;;;5030959;28;20435;-56
2023/12/17 09:43:59;;;;;;;38.08;14.00;;;9.80;99.90;;;;;;5031047;28;20244;-55
2023/12/17 09:46:25;;;;;;;30.58;12.52;;;9.70;99.90;;;;;;5032519;28;20506;-56
2023/12/17 09:48:51;;;;;;;35.30;13.63;;;9.80;99.90;;;;;;5023837;28;20022;-56
2023/12/17 09:51:18;;;;;;;33.53;13.02;;;9.80;99.90;;;;;;5026776;28;20109;-56
2023/12/17 09:53:44;;;;;;;32.60;12.15;;;9.70;99.90;;;;;;5032486;28;20542;-57
2023/12/17 09:56:12;;;;;;;34.10;13.35;;;9.70;99.90;;;;;;5032329;28;20407;-56
2023/12/17 09:58:38;;;;;;;33.45;12.88;;;9.70;99.90;;;;;;5017511;28;20025;-46
2023/12/17 10:01:03;;;;;;;36.92;13.75;;;9.70;99.90;;;;;;5031556;28;20506;-57
2023/12/17 10:03:30;;;;;;;43.15;15.93;;;9.70;99.90;;;;;;5031594;28;20026;-42
2023/12/17 10:05:56;;;;;;;35.33;14.45;;;9.70;99.90;;;;;;5031261;28;20036;-41
2023/12/17 10:08:22;;;;;;;39.03;14.13;;;9.70;99.90;;;;;;5031860;28;20109;-43
2023/12/17 10:10:48;;;;;;;36.10;14.57;;;9.70;99.90;;;;;;5029549;28;20388;-43
2023/12/17 10:13:19;;;;;;;36.47;14.35;;;9.60;99.90;;;;;;5030024;28;20476;-43
2023/12/17 10:15:49;;;;;;;30.73;12.77;;;9.60;99.90;;;;;;5028759;28;20025;-39
2023/12/17 10:18:16;;;;;;;40.80;14.13;;;9.50;99.90;;;;;;5033747;28;20379;-43
2023/12/17 10:20:43;;;;;;;34.00;14.02;;;9.40;99.90;;;;;;5036227;28;20479;-46
2023/12/17 10:23:09;;;;;;;33.83;13.57;;;9.40;99.90;;;;;;5036533;28;20044;-43
2023/12/17 10:25:34;;;;;;;39.88;13.38;;;9.40;99.90;;;;;;5035224;28;20037;-48
2023/12/17 10:28:00;;;;;;;37.75;15.05;;;9.50;99.90;;;;;;5036017;28;20026;-42
2023/12/17 10:30:31;;;;;;;36.60;13.02;;;9.50;99.90;;;;;;5035363;28;20388;-42
2023/12/17 10:33:01;;;;;;;29.45;13.65;;;9.50;99.90;;;;;;5036038;28;20426;-40
2023/12/17 10:35:29;;;;;;;36.75;14.13;;;9.50;99.90;;;;;;5035850;28;20021;-41
2023/12/17 10:38:00;;;;;;;37.00;13.30;;;9.50;99.90;;;;;;5035947;28;20025;-42
2023/12/17 10:40:27;;;;;;;32.13;12.00;;;9.60;99.90;;;;;;5036276;28;20451;-44
2023/12/17 10:42:55;;;;;;;36.28;13.10;;;9.50;99.90;;;;;;5036130;28;20022;-46
2023/12/17 10:45:22;;;;;;;30.73;12.13;;;9.50;99.90;;;;;;5034777;28;20401;-42
2023/12/17 10:47:52;;;;;;;28.05;10.32;;;9.50;99.90;;;;;;5034479;28;20521;-40
2023/12/17 10:50:18;;;;;;;26.67;10.60;;;9.50;99.90;;;;;;5018113;28;20468;-45
2023/12/17 10:52:46;;;;;;;30.75;12.02;;;9.60;99.90;;;;;;5035957;28;20536;-38
2023/12/17 10:55:12;;;;;;;27.83;12.15;;;9.70;99.90;;;;;;5036186;28;20394;-43
2023/12/17 10:57:40;;;;;;;29.13;10.90;;;9.70;99.90;;;;;;5035621;28;20033;-43
2023/12/17 11:00:09;;;;;;;28.65;12.32;;;9.70;99.90;;;;;;5035790;28;20036;-46
2023/12/17 11:02:34;;;;;;;25.80;11.15;;;9.70;99.90;;;;;;5035742;28;20468;-58
2023/12/17 11:05:00;;;;;;;22.98;11.70;;;9.70;99.90;;;;;;5035178;28;20030;-58
2023/12/17 11:07:27;;;;;;;28.05;10.93;;;9.70;99.90;;;;;;5035378;28;20037;-55
2023/12/17 11:09:54;;;;;;;27.15;11.63;;;9.70;99.90;;;;;;5034254;28;20041;-54
2023/12/17 11:12:20;;;;;;;29.13;12.20;;;9.70;99.90;;;;;;5035536;28;20427;-56
2023/12/17 11:14:46;;;;;;;21.92;9.75;;;9.70;99.90;;;;;;5035374;28;20034;-51
2023/12/17 11:17:14;;;;;;;26.75;10.77;;;9.70;99.90;;;;;;5035512;28;20059;-56
2023/12/17 11:20:00;;;;;;;32.00;10.48;;;9.80;99.90;;;;;;5035162;28;20041;-56
2023/12/17 11:22:27;;;;;;;29.52;11.10;;;9.80;99.90;;;;;;5034998;28;20025;-56
2023/12/17 11:24:55;;;;;;;29.50;9.73;;;9.80;99.90;;;;;;5035163;28;20102;-57
2023/12/17 11:27:22;;;;;;;;;;;9.80;99.90;;;;;;5035787;28;20020;-57
2023/12/17 11:29:49;;;;;;;22.40;8.07;;;9.90;99.90;;;;;;5034839;28;20359;-56
2023/12/17 11:32:17;;;;;;;31.13;10.88;;;9.80;99.90;;;;;;5035283;28;20083;-58
2023/12/17 11:34:48;;;;;;;22.08;9.23;;;9.80;99.90;;;;;;5035160;28;20057;-56
2023/12/17 11:37:23;;;;;;;32.58;10.52;;;9.80;99.90;;;;;;5035089;28;20072;-58
2023/12/17 11:39:49;;;;;;;23.70;9.30;;;9.90;99.90;;;;;;5035206;28;20033;-56
2023/12/17 11:42:17;;;;;;;23.27;9.43;;;9.90;99.90;;;;;;5033661;28;20035;-55
2023/12/17 11:44:47;;;;;;;23.52;11.10;;;9.80;99.90;;;;;;5034489;28;20488;-57
2023/12/17 11:47:14;;;;;;;26.38;9.82;;;9.80;99.90;;;;;;5033714;28;20026;-58
2023/12/17 11:49:40;;;;;;;27.17;9.60;;;9.80;99.90;;;;;;5034662;28;20021;-54
2023/12/17 11:52:18;;;;;;;29.63;10.52;;;9.80;99.90;;;;;;5034571;28;20030;-56
2023/12/17 11:54:44;;;;;;;23.15;9.60;;;9.80;99.90;;;;;;5034645;28;20055;-57
2023/12/17 11:57:23;;;;;;;28.13;11.32;;;9.80;99.90;;;;;;5034898;28;20025;-58
2023/12/17 11:59:50;;;;;;;25.80;9.43;;;9.80;99.90;;;;;;5034554;28;20057;-58
2023/12/17 12:02:20;;;;;;;22.98;9.70;;;9.80;99.90;;;;;;5034659;28;20386;-57
2023/12/17 12:04:46;;;;;;;27.65;9.20;;;9.80;99.90;;;;;;5034288;28;20021;-56
2023/12/17 12:07:19;;;;;;;34.47;9.50;;;9.80;99.90;;;;;;5034186;28;20056;-58
2023/12/17 12:09:45;;;;;;;27.50;9.18;;;9.80;99.90;;;;;;5034309;28;20013;-57
2023/12/17 12:12:16;;;;;;;24.95;9.18;;;9.80;99.90;;;;;;5032696;28;20502;-56
2023/12/17 12:14:44;;;;;;;24.10;8.10;;;9.90;99.90;;;;;;5034640;28;20506;-57
2023/12/17 12:17:40;;;;;;;31.48;8.48;;;9.90;99.90;;;;;;5034300;28;20033;-57
2023/12/17 12:20:07;;;;;;;19.88;7.45;;;10.00;99.90;;;;;;5034094;28;20506;-55
2023/12/17 12:22:34;;;;;;;20.80;6.68;;;9.90;99.90;;;;;;5033796;28;20026;-54
2023/12/17 12:25:00;;;;;;;12.83;5.50;;;10.00;99.90;;;;;;5034145;28;20025;-56
2023/12/17 12:27:26;;;;;;;17.90;5.97;;;10.00;99.90;;;;;;5033007;28;20026;-59
2023/12/17 12:29:52;;;;;;;19.25;5.85;;;10.00;99.90;;;;;;5033521;28;20480;-56
2023/12/17 12:32:31;;;;;;;18.30;7.07;;;10.10;99.90;;;;;;5034125;28;20538;-56
2023/12/17 12:34:58;;;;;;;15.43;5.30;;;10.20;99.90;;;;;;5032466;28;20021;-53
2023/12/17 12:37:50;;;;;;;17.55;4.57;;;10.20;99.90;;;;;;5034010;28;20472;-57